createdAt,value
2023-02-27T00:05:43.681Z,5.78
2023-02-27T00:16:43.674Z,4.80
2023-02-27T00:23:37.227Z,4.78
2023-02-27T00:30:26.526Z,9.40
2023-02-27T00:37:22.504Z,6.32
2023-02-27T00:44:09.970Z,6.88
2023-02-27T00:51:03.118Z,6.05
2023-02-27T00:57:53.405Z,6.90
2023-02-27T01:04:42.346Z,7.35
2023-02-27T01:11:29.054Z,3.72
2023-02-27T01:18:23.462Z,6.30
2023-02-27T01:25:11.567Z,5.00
2023-02-27T01:31:59.006Z,3.47
2023-02-27T01:43:07.554Z,5.28
2023-02-27T01:50:00.454Z,4.43
2023-02-27T01:56:47.744Z,8.70
2023-02-27T02:03:42.898Z,7.87
2023-02-27T02:10:31.713Z,6.30
2023-02-27T02:17:32.812Z,5.63
2023-02-27T02:25:20.112Z,10.43
2023-02-27T02:32:11.242Z,4.88
2023-02-27T02:43:28.251Z,2.33
2023-02-27T02:50:25.813Z,8.30
2023-02-27T02:57:20.984Z,4.55
2023-02-27T03:04:14.199Z,1.90
2023-02-27T03:10:58.929Z,5.90
2023-02-27T03:17:57.488Z,3.58
2023-02-27T03:24:55.444Z,7.03
2023-02-27T03:31:41.303Z,4.75
2023-02-27T03:43:10.733Z,9.65
2023-02-27T03:50:05.703Z,7.20
2023-02-27T03:57:03.829Z,7.57
2023-02-27T04:03:57.182Z,8.25
2023-02-27T04:11:35.996Z,8.68
2023-02-27T04:18:57.294Z,8.23
2023-02-27T04:25:57.008Z,6.78
2023-02-27T04:32:51.036Z,9.02
2023-02-27T04:39:53.611Z,9.75
2023-02-27T04:46:43.086Z,9.30
2023-02-27T04:53:34.993Z,5.90
2023-02-27T05:04:44.473Z,14.50
2023-02-27T05:12:33.349Z,11.23
2023-02-27T05:16:04.735Z,8.65
2023-02-27T05:19:24.532Z,8.70
2023-02-27T05:22:09.373Z,9.02
2023-02-27T05:25:16.898Z,8.60
2023-02-27T05:27:48.402Z,9.10
2023-02-27T05:30:27.919Z,8.65
2023-02-27T05:33:46.536Z,7.75
2023-02-27T05:36:20.011Z,6.90
2023-02-27T05:39:13.046Z,8.07
2023-02-27T05:42:09.478Z,9.55
2023-02-27T05:44:44.883Z,9.30
2023-02-27T05:47:19.584Z,10.02
2023-02-27T05:50:18.680Z,9.10
2023-02-27T05:57:19.556Z,9.88
2023-02-27T06:03:59.964Z,7.68
2023-02-27T06:10:59.361Z,10.82
2023-02-27T06:13:50.848Z,9.05
2023-02-27T06:20:45.522Z,10.10
2023-02-27T06:27:32.062Z,9.65
2023-02-27T06:34:20.350Z,11.57
2023-02-27T06:41:07.547Z,14.02
2023-02-27T06:47:59.911Z,11.13
2023-02-27T06:54:49.248Z,10.70
2023-02-27T07:01:41.956Z,11.88
2023-02-27T07:08:28.730Z,13.35
2023-02-27T07:20:01.321Z,9.25
2023-02-27T07:33:57.122Z,13.88
2023-02-27T07:40:45.285Z,10.57
2023-02-27T07:47:40.321Z,8.55
2023-02-27T07:54:28.002Z,10.60
2023-02-27T08:01:22.300Z,10.68
2023-02-27T08:08:09.839Z,5.40
2023-02-27T08:19:28.368Z,13.70
2023-02-27T08:26:14.970Z,11.45
2023-02-27T08:33:08.895Z,9.10
2023-02-27T08:39:57.217Z,15.50
2023-02-27T08:46:50.906Z,4.82
2023-02-27T08:50:00.553Z,5.97
2023-02-27T09:00:51.176Z,4.95
2023-02-27T09:07:38.144Z,5.95
2023-02-27T09:18:57.292Z,6.80
2023-02-27T09:25:38.308Z,5.20
2023-02-27T09:32:31.049Z,7.00
2023-02-27T09:39:19.472Z,5.97
2023-02-27T09:46:21.397Z,7.38
2023-02-27T09:53:18.186Z,7.90
2023-02-27T10:00:28.142Z,7.47
2023-02-27T10:07:16.772Z,5.45
2023-02-27T10:14:22.703Z,7.15
2023-02-27T10:21:15.285Z,8.18
2023-02-27T10:28:18.933Z,5.10
2023-02-27T10:35:24.284Z,4.25
2023-02-27T10:42:18.724Z,5.25
2023-02-27T10:49:20.018Z,3.15
2023-02-27T11:00:41.817Z,3.63
2023-02-27T11:07:33.864Z,4.97
2023-02-27T11:19:03.733Z,5.90
2023-02-27T11:25:52.963Z,13.98
2023-02-27T11:32:50.090Z,6.55
2023-02-27T11:39:49.357Z,6.88
2023-02-27T11:46:47.797Z,8.43
2023-02-27T11:54:00.910Z,6.93
2023-02-27T12:01:03.611Z,5.65
2023-02-27T12:07:55.691Z,5.20
2023-02-27T12:27:17.329Z,6.95
2023-02-27T12:38:43.037Z,7.18
2023-02-27T12:46:01.260Z,6.32
2023-02-27T12:53:03.091Z,9.20
2023-02-27T13:00:12.066Z,8.25
2023-02-27T13:07:04.589Z,7.50
2023-02-27T13:14:02.229Z,6.25
2023-02-27T13:20:55.340Z,6.00
2023-02-27T13:27:53.797Z,6.05
2023-02-27T13:34:44.557Z,6.60
2023-02-27T13:41:42.368Z,6.07
2023-02-27T13:48:54.221Z,6.80
2023-02-27T13:55:40.924Z,6.53
2023-02-27T14:02:56.737Z,9.75
2023-02-27T14:10:02.861Z,5.25
2023-02-27T14:21:58.529Z,6.25
2023-02-27T14:33:39.048Z,6.25
2023-02-27T14:40:41.883Z,5.70
2023-02-27T14:47:32.568Z,9.23
2023-02-27T14:54:21.120Z,5.53
2023-02-27T15:01:21.911Z,9.88
2023-02-27T15:04:41.526Z,10.95
2023-02-27T15:15:36.891Z,6.78
2023-02-27T15:35:19.012Z,8.20
2023-02-27T15:42:37.782Z,4.97
2023-02-27T15:49:26.836Z,7.72
2023-02-27T16:00:26.712Z,11.35
2023-02-27T16:07:18.653Z,7.40
2023-02-27T16:14:37.779Z,7.45
2023-02-27T16:21:42.418Z,7.57
2023-02-27T16:28:39.993Z,13.43
2023-02-27T16:35:28.729Z,10.50
2023-02-27T16:42:24.956Z,7.18
2023-02-27T16:49:22.926Z,14.13
2023-02-27T16:56:06.954Z,46.22
2023-02-27T17:03:03.022Z,65.97
2023-02-27T17:09:54.743Z,34.38
2023-02-27T17:22:12.448Z,30.35
2023-02-27T17:25:44.630Z,39.95
2023-02-27T17:29:15.308Z,42.05
2023-02-27T17:36:19.052Z,43.45
2023-02-27T17:43:08.761Z,48.30
2023-02-27T17:50:03.116Z,45.60
2023-02-27T17:57:10.145Z,40.17
2023-02-27T18:04:04.406Z,35.38
2023-02-27T18:11:02.117Z,32.08
2023-02-27T18:21:58.208Z,24.30
2023-02-27T18:28:56.826Z,31.35
2023-02-27T18:36:08.799Z,34.45
2023-02-27T18:47:46.432Z,26.48
2023-02-27T18:54:28.890Z,20.85
2023-02-27T19:01:30.426Z,20.75
2023-02-27T19:08:31.193Z,17.30
2023-02-27T19:15:20.907Z,57.20
2023-02-27T19:22:20.653Z,70.20
2023-02-27T19:29:14.279Z,26.75
2023-02-27T19:40:40.144Z,16.92
2023-02-27T19:43:30.896Z,18.10
2023-02-27T19:46:31.839Z,18.73
2023-02-27T19:53:20.377Z,29.23
2023-02-27T20:00:21.451Z,42.30
2023-02-27T20:06:57.408Z,48.00
2023-02-27T20:13:57.739Z,25.23
2023-02-27T20:21:29.327Z,17.10
2023-02-27T20:25:13.413Z,57.03
2023-02-27T20:32:15.513Z,47.90
2023-02-27T20:39:15.268Z,30.00
2023-02-27T20:46:08.289Z,38.03
2023-02-27T20:57:12.570Z,33.25
2023-02-27T21:04:04.136Z,28.85
2023-02-27T21:11:01.322Z,95.53
2023-02-27T21:13:56.992Z,49.17
2023-02-27T21:17:43.485Z,48.15
2023-02-27T21:21:27.793Z,43.13
2023-02-27T21:25:10.836Z,56.25
2023-02-27T21:27:40.604Z,16.90
2023-02-27T21:34:34.623Z,12.70
2023-02-27T21:41:30.282Z,15.25
2023-02-27T21:48:24.866Z,17.67
2023-02-27T21:55:16.358Z,12.50
2023-02-27T21:58:14.572Z,14.02
2023-02-27T22:05:07.023Z,14.82
2023-02-27T22:12:02.336Z,18.38
2023-02-27T22:23:08.130Z,16.55
2023-02-27T22:30:09.748Z,18.00
2023-02-27T22:37:02.700Z,21.25
2023-02-27T22:43:49.794Z,19.80
2023-02-27T22:50:44.396Z,17.38
2023-02-27T22:57:25.701Z,24.63
2023-02-27T23:04:18.974Z,24.30
2023-02-27T23:11:01.515Z,21.75
2023-02-27T23:17:58.565Z,18.35
2023-02-27T23:24:45.811Z,21.50
2023-02-27T23:31:42.375Z,18.13
2023-02-27T23:38:36.766Z,24.60
2023-02-27T23:49:45.074Z,12.85
2023-02-27T23:56:38.865Z,20.05
